sensor_id;sensor_type;location;lat;lon;timestamp;pressure;altitude;pressure_sealevel;temperature;humidity
54920;BME280;63804;53.120;8.764;2023-04-01T00:01:07;99461.53;;;9.41;84.25
54920;BME280;63804;53.120;8.764;2023-04-01T00:03:34;99463.19;;;9.42;83.97
54920;BME280;63804;53.120;8.764;2023-04-01T00:06:01;99463.66;;;9.37;84.43
54920;BME280;63804;53.120;8.764;2023-04-01T00:08:27;99462.66;;;9.38;84.07
54920;BME280;63804;53.120;8.764;2023-04-01T00:10:53;99461.38;;;9.42;84.32
54920;BME280;63804;53.120;8.764;2023-04-01T00:13:19;99459.53;;;9.43;83.84
54920;BME280;63804;53.120;8.764;2023-04-01T00:15:45;99459.53;;;9.43;84.37
54920;BME280;63804;53.120;8.764;2023-04-01T00:18:12;99458.88;;;9.41;84.29
54920;BME280;63804;53.120;8.764;2023-04-01T00:20:38;99462.28;;;9.33;84.65
54920;BME280;63804;53.120;8.764;2023-04-01T00:23:03;99456.66;;;9.36;84.28
54920;BME280;63804;53.120;8.764;2023-04-01T00:25:29;99458.63;;;9.34;84.88
54920;BME280;63804;53.120;8.764;2023-04-01T00:27:55;99450.41;;;9.37;84.63
54920;BME280;63804;53.120;8.764;2023-04-01T00:30:20;99458.47;;;9.36;84.39
54920;BME280;63804;53.120;8.764;2023-04-01T00:32:46;99456.66;;;9.36;84.62
54920;BME280;63804;53.120;8.764;2023-04-01T00:35:11;99453.88;;;9.38;84.62
54920;BME280;63804;53.120;8.764;2023-04-01T00:37:38;99455.38;;;9.40;84.52
54920;BME280;63804;53.120;8.764;2023-04-01T00:40:06;99461.97;;;9.36;84.41
54920;BME280;63804;53.120;8.764;2023-04-01T00:42:33;99451.22;;;9.38;84.67
54920;BME280;63804;53.120;8.764;2023-04-01T00:44:58;99452.34;;;9.35;84.64
54920;BME280;63804;53.120;8.764;2023-04-01T00:47:44;99454.91;;;9.27;85.07
54920;BME280;63804;53.120;8.764;2023-04-01T00:50:09;99456.13;;;9.33;84.94
54920;BME280;63804;53.120;8.764;2023-04-01T00:52:35;99457.34;;;9.38;84.71
54920;BME280;63804;53.120;8.764;2023-04-01T00:55:01;99460.28;;;9.35;84.60
54920;BME280;63804;53.120;8.764;2023-04-01T00:57:35;99461.81;;;9.38;84.72
54920;BME280;63804;53.120;8.764;2023-04-01T01:00:11;99458.00;;;9.40;84.57
54920;BME280;63804;53.120;8.764;2023-04-01T01:02:41;99465.97;;;9.40;84.49
54920;BME280;63804;53.120;8.764;2023-04-01T01:05:06;99462.41;;;9.32;84.81
54920;BME280;63804;53.120;8.764;2023-04-01T01:07:51;99463.78;;;9.36;84.97
54920;BME280;63804;53.120;8.764;2023-04-01T01:10:21;99458.47;;;9.36;84.83
54920;BME280;63804;53.120;8.764;2023-04-01T01:15:25;99462.69;;;9.29;84.56
54920;BME280;63804;53.120;8.764;2023-04-01T01:17:59;99461.59;;;9.31;84.73
54920;BME280;63804;53.120;8.764;2023-04-01T01:20:36;99458.63;;;9.34;84.57
54920;BME280;63804;53.120;8.764;2023-04-01T01:25:41;99456.66;;;9.36;84.66
54920;BME280;63804;53.120;8.764;2023-04-01T01:30:54;99461.88;;;9.28;85.09
54920;BME280;63804;53.120;8.764;2023-04-01T01:33:38;99459.75;;;9.32;84.85
54920;BME280;63804;53.120;8.764;2023-04-01T01:36:09;99466.34;;;9.28;84.95
54920;BME280;63804;53.120;8.764;2023-04-01T01:38:37;99465.50;;;9.27;85.32
54920;BME280;63804;53.120;8.764;2023-04-01T01:41:05;99460.75;;;9.31;84.95
54920;BME280;63804;53.120;8.764;2023-04-01T01:43:43;99457.94;;;9.32;85.12
54920;BME280;63804;53.120;8.764;2023-04-01T01:46:12;99461.97;;;9.36;84.75
54920;BME280;63804;53.120;8.764;2023-04-01T01:48:42;99466.13;;;9.39;84.67
54920;BME280;63804;53.120;8.764;2023-04-01T01:51:08;99461.00;;;9.37;84.57
54920;BME280;63804;53.120;8.764;2023-04-01T01:53:34;99465.75;;;9.34;84.81
54920;BME280;63804;53.120;8.764;2023-04-01T01:56:00;99464.06;;;9.33;84.97
54920;BME280;63804;53.120;8.764;2023-04-01T01:58:42;99466.59;;;9.34;84.98
54920;BME280;63804;53.120;8.764;2023-04-01T02:01:15;99468.53;;;9.32;84.96
54920;BME280;63804;53.120;8.764;2023-04-01T02:03:44;99472.47;;;9.28;85.37
54920;BME280;63804;53.120;8.764;2023-04-01T02:06:11;99470.13;;;9.25;85.26
54920;BME280;63804;53.120;8.764;2023-04-01T02:08:57;99470.81;;;9.27;85.35
54920;BME280;63804;53.120;8.764;2023-04-01T02:11:31;99469.81;;;9.28;85.21
54920;BME280;63804;53.120;8.764;2023-04-01T02:14:04;99466.28;;;9.37;85.05
54920;BME280;63804;53.120;8.764;2023-04-01T02:16:36;99466.44;;;9.36;84.70
54920;BME280;63804;53.120;8.764;2023-04-01T02:19:05;99468.41;;;9.34;84.71
54920;BME280;63804;53.120;8.764;2023-04-01T02:21:33;99467.72;;;9.32;84.89
54920;BME280;63804;53.120;8.764;2023-04-01T02:24:02;99475.91;;;9.38;84.63
54920;BME280;63804;53.120;8.764;2023-04-01T02:26:29;99473.72;;;9.34;84.70
54920;BME280;63804;53.120;8.764;2023-04-01T02:28:56;99479.44;;;9.29;85.07
54920;BME280;63804;53.120;8.764;2023-04-01T02:31:24;99473.31;;;9.29;85.14
54920;BME280;63804;53.120;8.764;2023-04-01T02:33:51;99476.50;;;9.32;84.99
54920;BME280;63804;53.120;8.764;2023-04-01T02:36:17;99485.88;;;9.27;85.16
54920;BME280;63804;53.120;8.764;2023-04-01T02:38:44;99477.09;;;9.26;85.08
54920;BME280;63804;53.120;8.764;2023-04-01T02:41:10;99481.13;;;9.30;84.96
54920;BME280;63804;53.120;8.764;2023-04-01T02:43:37;99480.59;;;9.27;85.13
54920;BME280;63804;53.120;8.764;2023-04-01T02:46:03;99480.44;;;9.28;85.21
54920;BME280;63804;53.120;8.764;2023-04-01T02:48:28;99483.78;;;9.30;84.83
54920;BME280;63804;53.120;8.764;2023-04-01T02:50:54;99478.47;;;9.30;84.86
54920;BME280;63804;53.120;8.764;2023-04-01T02:53:20;99485.63;;;9.20;85.56
54920;BME280;63804;53.120;8.764;2023-04-01T02:55:51;99492.00;;;9.27;85.10
54920;BME280;63804;53.120;8.764;2023-04-01T02:58:17;99491.72;;;9.30;85.10
54920;BME280;63804;53.120;8.764;2023-04-01T03:00:43;99492.69;;;9.29;85.10
54920;BME280;63804;53.120;8.764;2023-04-01T03:03:09;99497.47;;;9.26;85.00
54920;BME280;63804;53.120;8.764;2023-04-01T03:05:35;99502.25;;;9.22;85.22
54920;BME280;63804;53.120;8.764;2023-04-01T03:08:01;99496.50;;;9.27;85.32
54920;BME280;63804;53.120;8.764;2023-04-01T03:10:27;99499.59;;;9.22;85.29
54920;BME280;63804;53.120;8.764;2023-04-01T03:12:53;99500.78;;;9.28;84.98
54920;BME280;63804;53.120;8.764;2023-04-01T03:15:18;99504.56;;;9.25;85.01
54920;BME280;63804;53.120;8.764;2023-04-01T03:17:44;99505.25;;;9.27;85.12
54920;BME280;63804;53.120;8.764;2023-04-01T03:20:10;99497.91;;;9.21;85.08
54920;BME280;63804;53.120;8.764;2023-04-01T03:22:36;99498.19;;;9.18;85.17
54920;BME280;63804;53.120;8.764;2023-04-01T03:25:03;99497.91;;;9.21;85.32
54920;BME280;63804;53.120;8.764;2023-04-01T03:27:29;99506.38;;;9.25;85.00
54920;BME280;63804;53.120;8.764;2023-04-01T03:29:55;99502.00;;;9.15;85.25
54920;BME280;63804;53.120;8.764;2023-04-01T03:32:20;99503.50;;;9.18;85.21
54920;BME280;63804;53.120;8.764;2023-04-01T03:34:46;99502.44;;;9.11;85.18
54920;BME280;63804;53.120;8.764;2023-04-01T03:37:11;99507.41;;;9.14;85.16
54920;BME280;63804;53.120;8.764;2023-04-01T03:39:37;99508.41;;;9.13;85.44
54920;BME280;63804;53.120;8.764;2023-04-01T03:42:03;99508.78;;;9.18;84.86
54920;BME280;63804;53.120;8.764;2023-04-01T03:44:32;99503.09;;;9.13;84.90
54920;BME280;63804;53.120;8.764;2023-04-01T03:46:57;99508.41;;;9.13;85.10
54920;BME280;63804;53.120;8.764;2023-04-01T03:49:23;99515.38;;;9.14;84.97
54920;BME280;63804;53.120;8.764;2023-04-01T03:51:49;99520.53;;;9.15;85.02
54920;BME280;63804;53.120;8.764;2023-04-01T03:54:14;99518.44;;;9.19;84.66
54920;BME280;63804;53.120;8.764;2023-04-01T03:56:40;99516.44;;;9.21;84.67
54920;BME280;63804;53.120;8.764;2023-04-01T03:59:06;99517.06;;;9.15;84.77
54920;BME280;63804;53.120;8.764;2023-04-01T04:01:33;99521.28;;;9.08;84.92
54920;BME280;63804;53.120;8.764;2023-04-01T04:03:58;99528.06;;;9.10;84.99
54920;BME280;63804;53.120;8.764;2023-04-01T04:06:25;99526.81;;;9.14;84.83
54920;BME280;63804;53.120;8.764;2023-04-01T04:08:51;99525.28;;;9.12;84.81
54920;BME280;63804;53.120;8.764;2023-04-01T04:11:17;99527.13;;;9.11;84.72
54920;BME280;63804;53.120;8.764;2023-04-01T04:13:43;99520.56;;;9.06;85.11
54920;BME280;63804;53.120;8.764;2023-04-01T04:16:09;99526.03;;;9.04;85.02
54920;BME280;63804;53.120;8.764;2023-04-01T04:18:35;99529.50;;;9.05;85.16
54920;BME280;63804;53.120;8.764;2023-04-01T04:21:02;99530.88;;;9.09;84.65
54920;BME280;63804;53.120;8.764;2023-04-01T04:23:27;99532.53;;;9.10;84.68
54920;BME280;63804;53.120;8.764;2023-04-01T04:25:56;99532.59;;;9.00;84.93
54920;BME280;63804;53.120;8.764;2023-04-01T04:28:22;99539.13;;;9.06;84.82
54920;BME280;63804;53.120;8.764;2023-04-01T04:30:47;99541.09;;;9.04;84.84
54920;BME280;63804;53.120;8.764;2023-04-01T04:33:13;99541.91;;;9.04;84.73
54920;BME280;63804;53.120;8.764;2023-04-01T04:35:38;99538.56;;;9.02;84.73
54920;BME280;63804;53.120;8.764;2023-04-01T04:38:04;99544.56;;;9.04;84.63
54920;BME280;63804;53.120;8.764;2023-04-01T04:40:29;99554.19;;;9.05;84.80
54920;BME280;63804;53.120;8.764;2023-04-01T04:42:55;99559.22;;;8.98;84.76
54920;BME280;63804;53.120;8.764;2023-04-01T04:45:20;99557.72;;;8.96;85.02
54920;BME280;63804;53.120;8.764;2023-04-01T04:47:46;99555.28;;;9.03;84.89
54920;BME280;63804;53.120;8.764;2023-04-01T04:50:11;99559.34;;;9.07;84.74
54920;BME280;63804;53.120;8.764;2023-04-01T04:52:38;99557.53;;;9.07;84.38
54920;BME280;63804;53.120;8.764;2023-04-01T04:55:04;99559.19;;;9.08;84.45
54920;BME280;63804;53.120;8.764;2023-04-01T04:57:29;99561.84;;;9.08;84.46
54920;BME280;63804;53.120;8.764;2023-04-01T04:59:55;99564.66;;;9.07;84.46
54920;BME280;63804;53.120;8.764;2023-04-01T05:02:20;99571.72;;;9.06;84.35
54920;BME280;63804;53.120;8.764;2023-04-01T05:04:46;99571.50;;;9.00;84.51
54920;BME280;63804;53.120;8.764;2023-04-01T05:07:12;99573.16;;;9.01;84.79
54920;BME280;63804;53.120;8.764;2023-04-01T05:09:37;99575.25;;;9.07;84.44
54920;BME280;63804;53.120;8.764;2023-04-01T05:12:03;99575.38;;;9.05;84.39
54920;BME280;63804;53.120;8.764;2023-04-01T05:14:28;99567.97;;;9.09;84.46
54920;BME280;63804;53.120;8.764;2023-04-01T05:16:54;99581.50;;;9.06;84.32
54920;BME280;63804;53.120;8.764;2023-04-01T05:19:20;99580.00;;;9.03;84.70
54920;BME280;63804;53.120;8.764;2023-04-01T05:21:45;99578.19;;;9.04;84.77
54920;BME280;63804;53.120;8.764;2023-04-01T05:24:11;99581.66;;;9.04;84.83
54920;BME280;63804;53.120;8.764;2023-04-01T05:26:36;99584.97;;;9.06;84.43
54920;BME280;63804;53.120;8.764;2023-04-01T05:29:03;99584.84;;;9.08;84.47
54920;BME280;63804;53.120;8.764;2023-04-01T05:31:29;99591.53;;;9.12;84.41
54920;BME280;63804;53.120;8.764;2023-04-01T05:33:55;99584.84;;;9.08;84.71
54920;BME280;63804;53.120;8.764;2023-04-01T05:36:21;99594.06;;;9.04;84.55
54920;BME280;63804;53.120;8.764;2023-04-01T05:38:47;99595.44;;;9.08;84.45
54920;BME280;63804;53.120;8.764;2023-04-01T05:41:13;99595.44;;;9.08;84.29
54920;BME280;63804;53.120;8.764;2023-04-01T05:43:39;99599.47;;;9.12;84.48
54920;BME280;63804;53.120;8.764;2023-04-01T05:46:05;99593.91;;;9.05;84.96
54920;BME280;63804;53.120;8.764;2023-04-01T05:48:32;99608.09;;;9.14;84.69
54920;BME280;63804;53.120;8.764;2023-04-01T05:50:59;99612.84;;;9.20;84.18
54920;BME280;63804;53.120;8.764;2023-04-01T05:53:24;99603.34;;;9.17;84.25
54920;BME280;63804;53.120;8.764;2023-04-01T05:55:50;99610.19;;;9.20;84.12
54920;BME280;63804;53.120;8.764;2023-04-01T05:58:15;99605.31;;;9.15;84.22
54920;BME280;63804;53.120;8.764;2023-04-01T06:00:41;99610.63;;;9.15;84.23
54920;BME280;63804;53.120;8.764;2023-04-01T06:03:06;99620.63;;;9.21;84.26
54920;BME280;63804;53.120;8.764;2023-04-01T06:05:41;99619.13;;;9.19;84.32
54920;BME280;63804;53.120;8.764;2023-04-01T06:08:17;99623.25;;;9.31;83.69
54920;BME280;63804;53.120;8.764;2023-04-01T06:13:39;99632.28;;;9.38;83.46
54920;BME280;63804;53.120;8.764;2023-04-01T06:27:01;99637.31;;;9.41;84.03
54920;BME280;63804;53.120;8.764;2023-04-01T06:29:56;99639.66;;;9.44;83.48
54920;BME280;63804;53.120;8.764;2023-04-01T06:32:52;99637.16;;;9.43;83.66
54920;BME280;63804;53.120;8.764;2023-04-01T06:38:16;99649.38;;;9.54;83.42
54920;BME280;63804;53.120;8.764;2023-04-01T06:46:48;99656.78;;;9.50;83.61
54920;BME280;63804;53.120;8.764;2023-04-01T06:57:56;99667.44;;;9.40;83.95
54920;BME280;63804;53.120;8.764;2023-04-01T07:00:33;99668.03;;;9.34;83.99
54920;BME280;63804;53.120;8.764;2023-04-01T07:05:31;99667.75;;;9.37;84.06
54920;BME280;63804;53.120;8.764;2023-04-01T07:07:59;99671.91;;;9.40;83.80
54920;BME280;63804;53.120;8.764;2023-04-01T07:10:39;99678.03;;;9.40;83.99
54920;BME280;63804;53.120;8.764;2023-04-01T07:13:48;99677.19;;;9.40;84.42
54920;BME280;63804;53.120;8.764;2023-04-01T07:16:29;99691.19;;;9.32;84.30
54920;BME280;63804;53.120;8.764;2023-04-01T07:21:41;99698.09;;;9.53;83.59
54920;BME280;63804;53.120;8.764;2023-04-01T07:24:21;99696.66;;;9.68;83.08
54920;BME280;63804;53.120;8.764;2023-04-01T07:26:54;99698.84;;;9.73;82.92
54920;BME280;63804;53.120;8.764;2023-04-01T07:29:20;99702.88;;;9.77;82.66
54920;BME280;63804;53.120;8.764;2023-04-01T07:37:25;99711.22;;;9.82;83.10
54920;BME280;63804;53.120;8.764;2023-04-01T07:48:58;99730.56;;;9.64;84.27
54920;BME280;63804;53.120;8.764;2023-04-01T08:02:28;99748.44;;;9.62;83.48
54920;BME280;63804;53.120;8.764;2023-04-01T08:07:36;99744.50;;;9.76;82.74
54920;BME280;63804;53.120;8.764;2023-04-01T08:10:22;99751.47;;;9.87;82.59
54920;BME280;63804;53.120;8.764;2023-04-01T08:13:20;99758.38;;;9.98;82.37
54920;BME280;63804;53.120;8.764;2023-04-01T08:18:59;99762.53;;;10.10;82.06
54920;BME280;63804;53.120;8.764;2023-04-01T08:21:47;99763.94;;;10.04;82.16
54920;BME280;63804;53.120;8.764;2023-04-01T08:24:27;99767.19;;;10.26;81.41
54920;BME280;63804;53.120;8.764;2023-04-01T08:26:57;99757.88;;;10.39;81.01
54920;BME280;63804;53.120;8.764;2023-04-01T08:29:38;99777.41;;;10.48;80.61
54920;BME280;63804;53.120;8.764;2023-04-01T08:32:12;99778.16;;;10.40;81.18
54920;BME280;63804;53.120;8.764;2023-04-01T08:34:44;99780.47;;;10.43;81.29
54920;BME280;63804;53.120;8.764;2023-04-01T08:37:14;99790.91;;;10.55;80.92
54920;BME280;63804;53.120;8.764;2023-04-01T08:45:10;99801.53;;;10.55;80.62
54920;BME280;63804;53.120;8.764;2023-04-01T08:47:57;99799.28;;;10.60;80.49
54920;BME280;63804;53.120;8.764;2023-04-01T09:01:44;99807.75;;;10.18;81.82
54920;BME280;63804;53.120;8.764;2023-04-01T09:04:45;99808.56;;;10.18;81.43
54920;BME280;63804;53.120;8.764;2023-04-01T09:13:15;99820.63;;;10.40;80.96
54920;BME280;63804;53.120;8.764;2023-04-01T09:16:17;99827.41;;;10.53;80.63
54920;BME280;63804;53.120;8.764;2023-04-01T09:22:01;99837.13;;;10.62;80.62
54920;BME280;63804;53.120;8.764;2023-04-01T09:24:41;99834.00;;;10.49;81.33
54920;BME280;63804;53.120;8.764;2023-04-01T09:43:01;99862.16;;;11.05;78.91
54920;BME280;63804;53.120;8.764;2023-04-01T09:59:13;99877.84;;;10.80;79.38
54920;BME280;63804;53.120;8.764;2023-04-01T10:10:51;99913.69;;;9.63;79.07
54920;BME280;63804;53.120;8.764;2023-04-01T10:21:47;99948.69;;;9.28;80.53
54920;BME280;63804;53.120;8.764;2023-04-01T10:40:40;99962.19;;;9.05;80.59
54920;BME280;63804;53.120;8.764;2023-04-01T10:51:24;99972.53;;;9.18;78.87
54920;BME280;63804;53.120;8.764;2023-04-01T10:54:07;99979.94;;;9.14;78.04
54920;BME280;63804;53.120;8.764;2023-04-01T11:05:49;100005.75;;;8.82;79.10
54920;BME280;63804;53.120;8.764;2023-04-01T11:11:39;100012.63;;;8.94;77.69
54920;BME280;63804;53.120;8.764;2023-04-01T11:27:45;100039.03;;;8.74;78.34
54920;BME280;63804;53.120;8.764;2023-04-01T11:30:27;100047.22;;;8.71;77.58
54920;BME280;63804;53.120;8.764;2023-04-01T11:41:23;100055.53;;;8.36;78.83
54920;BME280;63804;53.120;8.764;2023-04-01T11:46:25;100066.88;;;8.27;78.63
54920;BME280;63804;53.120;8.764;2023-04-01T11:52:06;100077.09;;;8.32;77.91
54920;BME280;63804;53.120;8.764;2023-04-01T11:55:10;100078.09;;;8.40;77.35
54920;BME280;63804;53.120;8.764;2023-04-01T11:57:50;100087.78;;;8.30;78.04
54920;BME280;63804;53.120;8.764;2023-04-01T12:06:00;100100.66;;;8.23;78.18
54920;BME280;63804;53.120;8.764;2023-04-01T12:08:50;100111.63;;;8.19;78.15
54920;BME280;63804;53.120;8.764;2023-04-01T12:13:59;100117.19;;;8.16;77.76
54920;BME280;63804;53.120;8.764;2023-04-01T12:16:53;100126.53;;;8.20;77.95
54920;BME280;63804;53.120;8.764;2023-04-01T12:19:46;100127.13;;;8.35;76.87
54920;BME280;63804;53.120;8.764;2023-04-01T12:28:15;100132.66;;;8.20;77.69
54920;BME280;63804;53.120;8.764;2023-04-01T12:33:56;100140.00;;;8.28;77.78
54920;BME280;63804;53.120;8.764;2023-04-01T12:39:29;100151.22;;;8.09;77.51
54920;BME280;63804;53.120;8.764;2023-04-01T13:13:42;100205.31;;;8.60;76.14
54920;BME280;63804;53.120;8.764;2023-04-01T13:16:22;100212.84;;;8.43;75.79
54920;BME280;63804;53.120;8.764;2023-04-01T13:22:00;100220.38;;;8.27;76.59
54920;BME280;63804;53.120;8.764;2023-04-01T13:27:25;100227.75;;;8.44;76.26
54920;BME280;63804;53.120;8.764;2023-04-01T13:30:08;100225.38;;;8.30;76.36
54920;BME280;63804;53.120;8.764;2023-04-01T13:32:58;100242.22;;;8.18;77.31
54920;BME280;63804;53.120;8.764;2023-04-01T13:44:02;100251.63;;;8.11;76.13
54920;BME280;63804;53.120;8.764;2023-04-01T13:46:44;100264.16;;;8.09;76.70
54920;BME280;63804;53.120;8.764;2023-04-01T14:05:47;100294.47;;;8.05;77.11
54920;BME280;63804;53.120;8.764;2023-04-01T14:11:17;100305.28;;;8.01;77.12
54920;BME280;63804;53.120;8.764;2023-04-01T14:17:30;100324.75;;;7.78;76.48
54920;BME280;63804;53.120;8.764;2023-04-01T14:20:27;100326.91;;;7.84;76.57
54920;BME280;63804;53.120;8.764;2023-04-01T14:26:00;100334.72;;;7.74;76.26
54920;BME280;63804;53.120;8.764;2023-04-01T14:28:43;100346.16;;;7.86;76.63
54920;BME280;63804;53.120;8.764;2023-04-01T14:42:10;100360.19;;;7.75;76.16
54920;BME280;63804;53.120;8.764;2023-04-01T14:49:48;100388.59;;;7.49;77.09
54920;BME280;63804;53.120;8.764;2023-04-01T14:52:31;100384.19;;;7.61;76.17
54920;BME280;63804;53.120;8.764;2023-04-01T14:55:00;100391.25;;;7.49;76.87
54920;BME280;63804;53.120;8.764;2023-04-01T14:57:30;100405.53;;;7.47;77.19
54920;BME280;63804;53.120;8.764;2023-04-01T15:07:50;100412.81;;;7.08;76.19
54920;BME280;63804;53.120;8.764;2023-04-01T15:10:40;100418.59;;;7.13;76.59
54920;BME280;63804;53.120;8.764;2023-04-01T15:31:15;100462.38;;;7.05;76.46
54920;BME280;63804;53.120;8.764;2023-04-01T15:36:44;100470.84;;;6.97;76.38
54920;BME280;63804;53.120;8.764;2023-04-01T15:39:24;100477.81;;;6.98;76.40
54920;BME280;63804;53.120;8.764;2023-04-01T15:52:49;100495.09;;;6.78;75.71
54920;BME280;63804;53.120;8.764;2023-04-01T15:55:40;100501.53;;;6.74;75.42
54920;BME280;63804;53.120;8.764;2023-04-01T16:01:12;100521.78;;;6.73;75.31
54920;BME280;63804;53.120;8.764;2023-04-01T16:11:58;100551.47;;;6.51;75.70
54920;BME280;63804;53.120;8.764;2023-04-01T16:23:14;100558.97;;;6.58;74.57
54920;BME280;63804;53.120;8.764;2023-04-01T16:26:03;100565.72;;;6.49;75.37
54920;BME280;63804;53.120;8.764;2023-04-01T16:31:43;100569.50;;;6.58;74.34
54920;BME280;63804;53.120;8.764;2023-04-01T16:37:20;100585.78;;;6.51;74.55
54920;BME280;63804;53.120;8.764;2023-04-01T16:39:52;100584.63;;;6.56;74.75
54920;BME280;63804;53.120;8.764;2023-04-01T16:44:57;100603.63;;;6.48;74.59
54920;BME280;63804;53.120;8.764;2023-04-01T16:48:00;100609.63;;;6.50;73.91
54920;BME280;63804;53.120;8.764;2023-04-01T16:50:44;100613.09;;;6.50;74.15
54920;BME280;63804;53.120;8.764;2023-04-01T16:55:43;100630.66;;;6.51;74.64
54920;BME280;63804;53.120;8.764;2023-04-01T16:58:23;100632.53;;;6.49;74.75
54920;BME280;63804;53.120;8.764;2023-04-01T17:01:00;100636.53;;;6.42;74.99
54920;BME280;63804;53.120;8.764;2023-04-01T17:03:40;100652.50;;;6.26;74.82
54920;BME280;63804;53.120;8.764;2023-04-01T17:06:17;100652.09;;;6.33;74.64
54920;BME280;63804;53.120;8.764;2023-04-01T17:17:11;100678.06;;;6.12;74.54
54920;BME280;63804;53.120;8.764;2023-04-01T17:23:12;100703.66;;;6.24;73.57
54920;BME280;63804;53.120;8.764;2023-04-01T17:39:00;100728.47;;;6.21;74.13
54920;BME280;63804;53.120;8.764;2023-04-01T17:47:06;100743.66;;;6.03;73.66
54920;BME280;63804;53.120;8.764;2023-04-01T17:49:52;100761.38;;;6.01;73.55
54920;BME280;63804;53.120;8.764;2023-04-01T17:52:39;100765.22;;;6.10;73.42
54920;BME280;63804;53.120;8.764;2023-04-01T17:58:34;100787.00;;;5.99;73.78
54920;BME280;63804;53.120;8.764;2023-04-01T18:09:00;100809.13;;;5.82;74.15
54920;BME280;63804;53.120;8.764;2023-04-01T18:14:01;100823.72;;;5.88;73.37
54920;BME280;63804;53.120;8.764;2023-04-01T18:25:26;100848.56;;;5.84;73.32
54920;BME280;63804;53.120;8.764;2023-04-01T18:28:12;100854.16;;;5.94;73.00
54920;BME280;63804;53.120;8.764;2023-04-01T18:30:40;100857.03;;;5.89;72.97
54920;BME280;63804;53.120;8.764;2023-04-01T18:35:58;100875.41;;;5.76;73.16
54920;BME280;63804;53.120;8.764;2023-04-01T18:38:36;100883.47;;;5.73;73.48
54920;BME280;63804;53.120;8.764;2023-04-01T18:44:05;100895.66;;;5.76;73.24
54920;BME280;63804;53.120;8.764;2023-04-01T18:46:46;100901.31;;;5.84;73.28
54920;BME280;63804;53.120;8.764;2023-04-01T18:49:29;100899.91;;;5.78;73.13
54920;BME280;63804;53.120;8.764;2023-04-01T18:52:19;100916.13;;;5.56;73.87
54920;BME280;63804;53.120;8.764;2023-04-01T18:57:49;100929.97;;;5.60;73.21
54920;BME280;63804;53.120;8.764;2023-04-01T19:00:22;100933.00;;;5.68;73.43
54920;BME280;63804;53.120;8.764;2023-04-01T19:03:21;100939.16;;;5.53;72.33
54920;BME280;63804;53.120;8.764;2023-04-01T19:05:51;100939.00;;;5.56;73.39
54920;BME280;63804;53.120;8.764;2023-04-01T19:08:33;100957.34;;;5.57;72.91
54920;BME280;63804;53.120;8.764;2023-04-01T19:14:30;100964.31;;;5.58;72.43
54920;BME280;63804;53.120;8.764;2023-04-01T19:17:44;100968.59;;;5.45;72.75
54920;BME280;63804;53.120;8.764;2023-04-01T19:20:42;100982.09;;;5.39;73.14
54920;BME280;63804;53.120;8.764;2023-04-01T19:26:05;100987.13;;;5.28;73.41
54920;BME280;63804;53.120;8.764;2023-04-01T19:34:17;101010.94;;;5.26;72.94
54920;BME280;63804;53.120;8.764;2023-04-01T19:36:57;101008.38;;;5.25;72.83
54920;BME280;63804;53.120;8.764;2023-04-01T19:39:58;101013.56;;;5.11;73.00
54920;BME280;63804;53.120;8.764;2023-04-01T19:42:44;101020.28;;;5.16;72.96
54920;BME280;63804;53.120;8.764;2023-04-01T19:56:22;101051.19;;;5.13;72.69
54920;BME280;63804;53.120;8.764;2023-04-01T19:58:54;101057.13;;;5.16;72.58
54920;BME280;63804;53.120;8.764;2023-04-01T20:04:13;101067.59;;;5.18;71.70
54920;BME280;63804;53.120;8.764;2023-04-01T20:09:50;101080.25;;;5.11;71.42
54920;BME280;63804;53.120;8.764;2023-04-01T20:14:54;101099.63;;;5.10;71.98
54920;BME280;63804;53.120;8.764;2023-04-01T20:25:46;101120.84;;;5.07;71.55
54920;BME280;63804;53.120;8.764;2023-04-01T20:50:35;101159.47;;;4.91;70.46
54920;BME280;63804;53.120;8.764;2023-04-01T20:53:25;101159.59;;;4.88;70.69
54920;BME280;63804;53.120;8.764;2023-04-01T21:13:10;101207.97;;;4.68;69.93
54920;BME280;63804;53.120;8.764;2023-04-01T21:29:47;101241.00;;;4.56;68.96
54920;BME280;63804;53.120;8.764;2023-04-01T21:32:57;101253.63;;;4.49;68.56
54920;BME280;63804;53.120;8.764;2023-04-01T21:44:17;101283.28;;;4.53;67.15
54920;BME280;63804;53.120;8.764;2023-04-01T21:55:47;101311.44;;;4.51;67.27
54920;BME280;63804;53.120;8.764;2023-04-01T22:07:15;101321.63;;;4.40;66.28
54920;BME280;63804;53.120;8.764;2023-04-01T22:16:05;101349.81;;;3.98;64.96
54920;BME280;63804;53.120;8.764;2023-04-01T22:18:43;101347.03;;;4.01;65.57
54920;BME280;63804;53.120;8.764;2023-04-01T22:21:24;101356.22;;;3.93;64.81
54920;BME280;63804;53.120;8.764;2023-04-01T22:24:14;101363.69;;;3.81;64.65
54920;BME280;63804;53.120;8.764;2023-04-01T22:26:53;101369.16;;;3.77;65.28
54920;BME280;63804;53.120;8.764;2023-04-01T22:29:40;101371.63;;;3.80;65.42
54920;BME280;63804;53.120;8.764;2023-04-01T22:32:13;101391.78;;;3.79;65.53
54920;BME280;63804;53.120;8.764;2023-04-01T22:42:39;101412.09;;;3.55;65.35
54920;BME280;63804;53.120;8.764;2023-04-01T22:50:34;101421.84;;;3.53;64.93
54920;BME280;63804;53.120;8.764;2023-04-01T22:55:44;101436.25;;;3.43;65.68
54920;BME280;63804;53.120;8.764;2023-04-01T22:58:32;101438.94;;;3.42;64.81
54920;BME280;63804;53.120;8.764;2023-04-01T23:01:05;101445.06;;;3.42;65.08
54920;BME280;63804;53.120;8.764;2023-04-01T23:03:38;101447.72;;;3.41;65.22
54920;BME280;63804;53.120;8.764;2023-04-01T23:06:06;101451.81;;;3.26;66.14
54920;BME280;63804;53.120;8.764;2023-04-01T23:11:17;101458.81;;;3.27;66.06
54920;BME280;63804;53.120;8.764;2023-04-01T23:13:49;101463.13;;;3.28;65.96
54920;BME280;63804;53.120;8.764;2023-04-01T23:16:20;101466.56;;;3.08;65.09
54920;BME280;63804;53.120;8.764;2023-04-01T23:19:06;101473.09;;;3.20;65.69
54920;BME280;63804;53.120;8.764;2023-04-01T23:21:54;101472.59;;;3.10;65.92
54920;BME280;63804;53.120;8.764;2023-04-01T23:24:41;101475.59;;;3.01;66.02
54920;BME280;63804;53.120;8.764;2023-04-01T23:27:35;101490.22;;;3.06;65.54
54920;BME280;63804;53.120;8.764;2023-04-01T23:30:11;101494.81;;;3.01;66.06
54920;BME280;63804;53.120;8.764;2023-04-01T23:33:09;101499.03;;;3.05;65.24
54920;BME280;63804;53.120;8.764;2023-04-01T23:35:47;101515.84;;;3.00;65.42